This is the latest recevied weather packets stored in our database for station/object K6MBY. If no packets are shown the sender has not sent any weather packets the latest 10 day(s).
| Time | Temp. | Humidity | Pressure | Rain* | Wind** | Luminosity | Snow |
|---|---|---|---|---|---|---|---|
| 1777885845 | 17.22° C | 46% | 1012.4 hPa | 0 mm | - | 0 W/m² | - |
| 1777885543 | 15° C | 49% | 1012.6 hPa | 0 mm | - | 0 W/m² | - |
| 1777885241 | 15.56° C | 56% | 1012.6 hPa | 0 mm | - | 0 W/m² | - |
| 1777884939 | 17.78° C | 44% | 1012.8 hPa | 0 mm | - | 0 W/m² | - |
| 1777884635 | 17.78° C | 43% | 1012.7 hPa | 0 mm | - | 0 W/m² | - |
| 1777884332 | 17.78° C | 43% | 1012.5 hPa | 0 mm | - | 0 W/m² | - |
| 1777884027 | 17.78° C | 44% | 1012.6 hPa | 0 mm | - | 0 W/m² | - |
| 1777883726 | 17.78° C | 44% | 1012.5 hPa | 0 mm | - | 0 W/m² | - |
| 1777883422 | 17.78° C | 44% | 1012.7 hPa | 0 mm | - | 0 W/m² | - |
| 1777883118 | 17.78° C | 43% | 1012.5 hPa | 0 mm | - | 0 W/m² | - |
| 1777882815 | 18.33° C | 44% | 1012.6 hPa | 0 mm | - | 0 W/m² | - |
| 1777882512 | 17.78° C | 44% | 1012.6 hPa | 0 mm | - | 0 W/m² | - |
| 1777882208 | 18.33° C | 45% | 1012.6 hPa | 0 mm | - | 0 W/m² | - |
| 1777881904 | 17.78° C | 44% | 1012.6 hPa | 0 mm | - | 0 W/m² | - |
| 1777881601 | 18.33° C | 45% | 1012.5 hPa | 0 mm | - | 0 W/m² | - |
| 1777881298 | 18.33° C | 44% | 1012.6 hPa | 0 mm | - | 0 W/m² | - |
| 1777880995 | 18.33° C | 44% | 1012.8 hPa | 0 mm | - | 0 W/m² | - |
| 1777880693 | 18.33° C | 43% | 1012.9 hPa | 0 mm | - | 0 W/m² | - |
| 1777880390 | 17.78° C | 44% | 1012.8 hPa | 0 mm | - | 0 W/m² | - |
| 1777880089 | 17.22° C | 47% | 1012.6 hPa | 0 mm | - | 0 W/m² | - |
| 1777879787 | 17.78° C | 46% | 1012.7 hPa | 0 mm | - | 0 W/m² | - |
| 1777879484 | 17.78° C | 46% | 1012.7 hPa | 0 mm | - | 0 W/m² | - |
| 1777879181 | 17.78° C | 47% | 1012.9 hPa | 0 mm | - | 0 W/m² | - |
| 1777878878 | 17.78° C | 46% | 1012.9 hPa | 0 mm | - | 0 W/m² | - |
| 1777878575 | 18.33° C | 45% | 1012.9 hPa | 0 mm | - | 0 W/m² | - |
* Rain latest hour (hover to see other rain measurements)
** Current wind speed in m/s (hover to see current wind gust speed)